Time;durP1;ratioP1;P1;durP2;ratioP2;P2;SDS_P1;SDS_P2;PMS_P1;PMS_P2;Temp;Humidity;BMP_temperature;BMP_pressure;BME280_temperature;BME280_humidity;BME280_pressure;Samples;Min_cycle;Max_cycle;Signal;HPM_P1;HPM_P2
2022/07/10 00:00:01;;;;;;;4.05;1.90;;;25.20;99.90;;;;;;1912704;75;21527;-78
2022/07/10 00:02:32;;;;;;;3.00;1.82;;;25.20;99.90;;;;;;1913395;75;21056;-78
2022/07/10 00:05:03;;;;;;;5.25;1.80;;;25.20;99.90;;;;;;1913569;74;21492;-79
2022/07/10 00:07:35;;;;;;;6.92;1.95;;;25.20;99.90;;;;;;1929365;72;21168;-78
2022/07/10 00:10:06;;;;;;;3.52;2.00;;;25.20;99.90;;;;;;1954407;72;21085;-79
2022/07/10 00:12:37;;;;;;;3.27;1.60;;;25.20;99.90;;;;;;1954783;73;21089;-78
2022/07/10 00:15:09;;;;;;;2.20;1.20;;;25.20;99.90;;;;;;1957849;72;21081;-79
2022/07/10 00:17:40;;;;;;;2.85;1.10;;;25.20;99.90;;;;;;1972022;73;21073;-78
2022/07/10 00:20:12;;;;;;;2.87;1.20;;;25.20;99.90;;;;;;1972057;73;21116;-79
2022/07/10 00:22:44;;;;;;;4.58;1.10;;;25.20;99.90;;;;;;1971975;73;21053;-78
2022/07/10 00:25:15;;;;;;;1.92;1.00;;;25.30;99.90;;;;;;1971831;73;21619;-78
2022/07/10 00:27:46;;;;;;;3.72;1.62;;;25.30;99.90;;;;;;1971916;73;21528;-77
2022/07/10 00:30:18;;;;;;;3.45;1.20;;;25.30;99.90;;;;;;1972007;73;21574;-77
2022/07/10 00:32:49;;;;;;;2.10;1.07;;;25.30;99.90;;;;;;1971872;73;21603;-77
2022/07/10 00:35:20;;;;;;;1.30;0.72;;;25.30;99.90;;;;;;1971858;73;21543;-78
2022/07/10 00:37:51;;;;;;;3.65;0.93;;;25.30;99.90;;;;;;1971950;73;21053;-77
2022/07/10 00:40:23;;;;;;;3.83;1.15;;;25.30;99.90;;;;;;1971800;73;21544;-80
2022/07/10 00:42:53;;;;;;;5.42;1.07;;;25.30;99.90;;;;;;1927080;73;21546;-79
2022/07/10 00:45:24;;;;;;;2.72;1.20;;;25.40;99.90;;;;;;1925912;73;21937;-79
2022/07/10 00:47:56;;;;;;;2.92;1.47;;;25.40;99.90;;;;;;1926064;74;21633;-78
2022/07/10 00:50:27;;;;;;;3.75;1.07;;;25.40;99.90;;;;;;1926153;74;21511;-78
2022/07/10 00:52:58;;;;;;;4.42;0.98;;;25.50;99.90;;;;;;1926067;74;21546;-77
2022/07/10 00:55:31;;;;;;;1.87;1.10;;;25.50;99.90;;;;;;1926402;74;21580;-78
2022/07/10 00:58:03;;;;;;;2.10;0.80;;;25.60;99.90;;;;;;1926099;74;21583;-78
2022/07/10 01:00:34;;;;;;;3.00;1.22;;;25.70;99.90;;;;;;1926493;74;21511;-78
2022/07/10 01:03:05;;;;;;;2.00;1.22;;;25.70;99.90;;;;;;1925875;73;21123;-78
2022/07/10 01:05:38;;;;;;;2.95;1.50;;;25.70;99.90;;;;;;1926401;74;21173;-78
2022/07/10 01:08:09;;;;;;;4.40;1.15;;;25.70;99.90;;;;;;1925999;74;21126;-78
2022/07/10 01:10:40;;;;;;;4.10;1.40;;;25.70;99.90;;;;;;1926002;74;21159;-78
2022/07/10 01:13:11;;;;;;;3.45;1.27;;;25.70;99.90;;;;;;1925970;74;21122;-78
2022/07/10 01:15:43;;;;;;;2.47;1.15;;;25.70;99.90;;;;;;1931376;73;21084;-78
2022/07/10 01:18:14;;;;;;;2.40;1.42;;;25.70;99.90;;;;;;1959780;73;21076;-78
2022/07/10 01:20:45;;;;;;;3.02;1.30;;;25.80;99.90;;;;;;1950461;73;21192;-78
2022/07/10 01:23:16;;;;;;;2.87;1.05;;;25.90;99.90;;;;;;1932188;74;21089;-77
2022/07/10 01:25:48;;;;;;;2.58;1.00;;;26.00;99.90;;;;;;1873741;76;21581;-77
2022/07/10 01:28:20;;;;;;;3.30;1.07;;;26.00;99.90;;;;;;1932032;74;21130;-78
2022/07/10 01:30:52;;;;;;;4.17;1.20;;;26.20;99.90;;;;;;1925653;74;21526;-78
2022/07/10 01:33:22;;;;;;;2.10;1.00;;;26.20;99.90;;;;;;1925676;74;21486;-77
2022/07/10 01:35:53;;;;;;;2.02;1.25;;;26.30;99.90;;;;;;1925887;74;22041;-77
2022/07/10 01:38:25;;;;;;;4.17;1.02;;;26.40;99.90;;;;;;1926010;74;21133;-78
2022/07/10 01:40:57;;;;;;;2.65;1.32;;;26.50;99.90;;;;;;1917535;74;21561;-78
2022/07/10 01:43:28;;;;;;;1.57;0.90;;;26.60;99.90;;;;;;1897290;75;21556;-77
2022/07/10 01:45:59;;;;;;;1.85;0.70;;;26.70;99.90;;;;;;1891049;76;21061;-78
2022/07/10 01:48:31;;;;;;;3.65;0.90;;;26.70;99.90;;;;;;1928027;73;21479;-78
2022/07/10 01:51:02;;;;;;;2.45;0.82;;;26.80;99.90;;;;;;1890986;76;21165;-79
2022/07/10 01:53:34;;;;;;;1.55;0.72;;;26.90;99.90;;;;;;1897004;75;21482;-79
2022/07/10 01:56:07;;;;;;;3.10;1.30;;;27.00;99.90;;;;;;1891004;76;21531;-78
2022/07/10 01:58:39;;;;;;;1.85;0.80;;;27.00;99.90;;;;;;1928025;74;21071;-78
2022/07/10 02:01:12;;;;;;;1.60;0.80;;;27.00;99.90;;;;;;1894118;74;21115;-78
2022/07/10 02:06:15;;;;;;;3.90;1.10;;;27.00;99.90;;;;;;1915931;75;21057;-79
2022/07/10 02:08:46;;;;;;;3.25;0.98;;;27.00;99.90;;;;;;1918659;75;21155;-78
2022/07/10 02:11:17;;;;;;;1.55;0.80;;;27.00;99.90;;;;;;1918562;75;21189;-77
2022/07/10 02:13:48;;;;;;;3.45;1.00;;;27.00;99.90;;;;;;1918580;75;21205;-78
2022/07/10 02:16:19;;;;;;;3.22;1.02;;;26.90;99.90;;;;;;1919315;74;21135;-76
2022/07/10 02:18:50;;;;;;;1.45;0.60;;;26.90;99.90;;;;;;1934132;73;21068;-78
2022/07/10 02:21:21;;;;;;;1.30;0.75;;;26.90;99.90;;;;;;2000771;72;21071;-78
2022/07/10 02:23:52;;;;;;;2.15;1.30;;;26.90;99.90;;;;;;1942139;72;21083;-79
2022/07/10 02:26:23;;;;;;;3.22;0.98;;;26.90;99.90;;;;;;1902560;75;21489;-79
2022/07/10 02:28:55;;;;;;;2.37;0.88;;;27.00;99.90;;;;;;1935267;74;21508;-78
2022/07/10 02:31:26;;;;;;;1.75;0.82;;;27.10;99.90;;;;;;1960013;73;21201;-78
2022/07/10 02:33:58;;;;;;;2.45;0.90;;;27.10;99.90;;;;;;1963894;73;21103;-78
2022/07/10 02:36:29;;;;;;;5.42;1.20;;;27.20;99.90;;;;;;1964864;73;21044;-77
2022/07/10 02:39:00;;;;;;;2.65;0.80;;;27.30;99.90;;;;;;1965046;72;21068;-78
2022/07/10 02:41:32;;;;;;;2.05;0.82;;;27.30;99.90;;;;;;1963794;73;21068;-78
2022/07/10 02:44:03;;;;;;;1.57;0.70;;;27.30;99.90;;;;;;1928924;74;21060;-78
2022/07/10 02:46:34;;;;;;;2.72;0.85;;;27.30;99.90;;;;;;1960131;73;21244;-79
2022/07/10 02:49:05;;;;;;;3.52;1.07;;;27.30;99.90;;;;;;1960473;73;21523;-77
2022/07/10 02:51:37;;;;;;;2.95;1.20;;;27.20;99.90;;;;;;1961205;73;21107;-79
2022/07/10 02:54:08;;;;;;;3.30;1.00;;;27.20;99.90;;;;;;1960148;73;21581;-79
2022/07/10 02:56:39;;;;;;;2.58;1.10;;;27.20;99.90;;;;;;1960304;73;21511;-80
2022/07/10 02:59:10;;;;;;;2.92;1.12;;;27.20;99.90;;;;;;1960296;73;21076;-79
2022/07/10 03:01:41;;;;;;;2.92;1.10;;;27.20;99.90;;;;;;1960443;73;21609;-78
2022/07/10 03:04:13;;;;;;;2.45;1.10;;;27.20;99.90;;;;;;1960064;73;21535;-79
2022/07/10 03:06:44;;;;;;;3.60;1.20;;;27.20;99.90;;;;;;1959644;73;21057;-77
2022/07/10 03:09:15;;;;;;;2.60;0.82;;;27.20;99.90;;;;;;1959070;73;21623;-79
2022/07/10 03:11:47;;;;;;;2.65;0.70;;;27.30;99.90;;;;;;1959155;73;21603;-78
2022/07/10 03:14:18;;;;;;;2.30;0.70;;;27.30;99.90;;;;;;1959333;73;21160;-77
2022/07/10 03:16:49;;;;;;;3.67;1.00;;;27.40;99.90;;;;;;1957654;72;21512;-77
2022/07/10 03:19:21;;;;;;;1.60;0.72;;;27.50;99.90;;;;;;1933166;74;21591;-78
2022/07/10 03:21:51;;;;;;;3.35;0.80;;;27.50;99.90;;;;;;1942070;74;21069;-79
2022/07/10 03:24:22;;;;;;;2.52;0.75;;;27.60;99.90;;;;;;1943962;74;21108;-78
2022/07/10 03:26:53;;;;;;;2.00;0.50;;;27.70;99.90;;;;;;1916171;75;21092;-78
2022/07/10 03:29:25;;;;;;;1.72;0.65;;;27.90;99.90;;;;;;1919393;74;21528;-78
2022/07/10 03:31:56;;;;;;;1.57;0.70;;;28.10;99.90;;;;;;1910169;75;21496;-80
2022/07/10 03:34:27;;;;;;;1.55;0.68;;;28.20;99.90;;;;;;1910300;75;21653;-78
2022/07/10 03:36:58;;;;;;;2.33;0.90;;;28.30;99.90;;;;;;1910210;75;21132;-79
2022/07/10 03:39:29;;;;;;;3.58;0.98;;;28.40;99.90;;;;;;1932054;74;21072;-79
2022/07/10 03:42:00;;;;;;;2.12;1.00;;;28.40;99.90;;;;;;1933212;74;21456;-78
2022/07/10 03:44:32;;;;;;;3.08;0.80;;;28.40;99.90;;;;;;1933395;74;21073;-77
2022/07/10 03:47:04;;;;;;;2.80;0.78;;;28.40;99.90;;;;;;1933398;74;21134;-79
2022/07/10 03:49:35;;;;;;;1.55;0.70;;;28.40;99.80;;;;;;1933344;73;21174;-79
2022/07/10 03:52:07;;;;;;;1.90;0.90;;;28.40;99.90;;;;;;1947798;73;21076;-78
2022/07/10 03:54:38;;;;;;;2.25;0.90;;;28.40;99.50;;;;;;1951389;73;21563;-78
2022/07/10 03:59:41;;;;;;;4.50;1.27;;;28.20;99.20;;;;;;1947482;73;21527;-77
2022/07/10 04:02:13;;;;;;;4.30;1.35;;;28.20;99.70;;;;;;1949749;73;21124;-77
2022/07/10 04:04:44;;;;;;;1.72;0.80;;;28.10;99.90;;;;;;1949755;73;21080;-78
2022/07/10 04:07:16;;;;;;;2.47;1.02;;;27.90;99.90;;;;;;1949545;73;21076;-78
2022/07/10 04:09:47;;;;;;;1.50;0.72;;;27.80;99.90;;;;;;1949819;73;21126;-79
2022/07/10 04:12:18;;;;;;;4.85;1.00;;;27.70;99.90;;;;;;1949733;73;21115;-77
2022/07/10 04:14:51;;;;;;;3.42;1.02;;;27.60;99.90;;;;;;1949622;73;21165;-77
2022/07/10 04:17:21;;;;;;;3.17;1.07;;;27.50;99.90;;;;;;1944980;73;21061;-78
2022/07/10 04:19:52;;;;;;;2.52;1.22;;;27.40;99.90;;;;;;1957786;73;21064;-79
2022/07/10 04:22:23;;;;;;;2.60;0.95;;;27.40;99.90;;;;;;1925548;73;21146;-77
2022/07/10 04:24:55;;;;;;;2.77;1.05;;;27.40;99.90;;;;;;1925614;74;21060;-79
2022/07/10 04:27:26;;;;;;;2.20;0.88;;;27.50;99.90;;;;;;1931064;73;22001;-79
2022/07/10 04:29:57;;;;;;;2.35;1.22;;;27.50;99.90;;;;;;1961318;73;21157;-80
2022/07/10 04:32:29;;;;;;;2.40;1.00;;;27.70;99.90;;;;;;1960982;73;21500;-79
2022/07/10 04:35:02;;;;;;;2.80;0.95;;;27.80;99.90;;;;;;1961115;73;21594;-79
2022/07/10 04:37:34;;;;;;;3.87;1.05;;;27.90;99.90;;;;;;1960988;72;21571;-78
2022/07/10 04:40:05;;;;;;;2.77;0.93;;;28.00;99.90;;;;;;1960959;73;21579;-79
2022/07/10 04:42:37;;;;;;;4.08;0.85;;;28.10;99.90;;;;;;1960952;73;21044;-79
2022/07/10 04:45:08;;;;;;;1.98;0.90;;;28.20;99.90;;;;;;1933826;73;21544;-79
2022/07/10 04:47:39;;;;;;;2.25;1.10;;;28.30;99.90;;;;;;1926257;74;21524;-78
2022/07/10 04:50:10;;;;;;;5.10;1.07;;;28.30;99.90;;;;;;1926597;74;21070;-79
2022/07/10 04:52:41;;;;;;;3.85;1.40;;;28.20;99.90;;;;;;1926299;74;21505;-78
2022/07/10 04:55:12;;;;;;;4.03;1.00;;;28.10;99.90;;;;;;1926552;74;21505;-80
2022/07/10 04:57:44;;;;;;;4.03;1.30;;;28.10;99.90;;;;;;1927425;74;21155;-79
2022/07/10 05:00:16;;;;;;;1.77;0.90;;;28.00;99.90;;;;;;1926810;74;21160;-81
2022/07/10 05:02:47;;;;;;;3.12;0.90;;;28.00;99.90;;;;;;1926431;74;21468;-84
2022/07/10 05:05:18;;;;;;;2.58;1.02;;;28.00;99.90;;;;;;1925372;74;21602;-78
2022/07/10 05:07:50;;;;;;;5.12;0.90;;;27.90;99.90;;;;;;1931322;74;21589;-78
2022/07/10 05:10:21;;;;;;;4.78;0.82;;;28.00;99.90;;;;;;1869116;76;21096;-78
2022/07/10 05:12:52;;;;;;;3.22;1.20;;;27.90;99.90;;;;;;1963941;72;21076;-79
2022/07/10 05:15:23;;;;;;;4.53;1.40;;;28.00;99.90;;;;;;1980161;72;21062;-80
2022/07/10 05:17:54;;;;;;;4.67;1.37;;;27.90;99.90;;;;;;1926026;74;21594;-78
2022/07/10 05:20:25;;;;;;;2.35;1.10;;;27.90;99.90;;;;;;1949761;73;21093;-79
2022/07/10 05:22:57;;;;;;;3.47;1.25;;;27.90;99.90;;;;;;1948827;73;21500;-79
2022/07/10 05:25:30;;;;;;;4.55;1.37;;;27.80;99.90;;;;;;1943862;74;21599;-78
2022/07/10 05:28:00;;;;;;;2.30;1.20;;;27.80;99.90;;;;;;1944220;74;21169;-78
2022/07/10 05:30:31;;;;;;;2.33;1.10;;;27.80;99.90;;;;;;1946484;73;21506;-78
2022/07/10 05:33:02;;;;;;;2.67;1.40;;;27.90;99.90;;;;;;1945046;73;21119;-78
2022/07/10 05:35:33;;;;;;;4.75;1.17;;;27.80;99.90;;;;;;1949521;73;21174;-79
2022/07/10 05:38:04;;;;;;;4.65;1.80;;;27.80;99.90;;;;;;1943305;73;22347;-78
2022/07/10 05:40:35;;;;;;;3.92;1.77;;;27.80;99.90;;;;;;1951718;73;21658;-78
2022/07/10 05:43:06;;;;;;;2.45;1.20;;;27.70;99.90;;;;;;1951640;73;21123;-78
2022/07/10 05:45:37;;;;;;;3.65;0.93;;;27.70;99.90;;;;;;1951926;73;21173;-78
2022/07/10 05:48:10;;;;;;;1.60;0.80;;;27.70;99.90;;;;;;1953446;72;21123;-79
2022/07/10 05:50:41;;;;;;;2.30;0.95;;;27.60;99.90;;;;;;1937398;73;21195;-78
2022/07/10 05:53:12;;;;;;;4.70;1.87;;;27.40;99.90;;;;;;1948109;73;21601;-78
2022/07/10 05:55:43;;;;;;;4.12;1.30;;;27.40;99.90;;;;;;1940095;73;21075;-79
2022/07/10 05:58:14;;;;;;;2.98;1.25;;;27.30;99.90;;;;;;1951162;73;21104;-78
2022/07/10 06:00:45;;;;;;;2.92;1.35;;;27.30;99.90;;;;;;1923511;73;21181;-79
2022/07/10 06:03:17;;;;;;;2.95;1.20;;;27.40;99.90;;;;;;1943641;73;21287;-80
2022/07/10 06:05:48;;;;;;;2.33;1.27;;;27.40;99.90;;;;;;1948849;73;21583;-79
2022/07/10 06:08:19;;;;;;;2.33;1.37;;;27.50;99.90;;;;;;1950208;73;21147;-80
2022/07/10 06:10:50;;;;;;;2.95;1.60;;;27.60;99.90;;;;;;1922896;74;21126;-80
2022/07/10 06:13:22;;;;;;;2.90;1.27;;;27.70;99.90;;;;;;1921098;74;21123;-78
2022/07/10 06:15:53;;;;;;;1.72;1.15;;;27.80;99.90;;;;;;1918015;74;21095;-79
2022/07/10 06:18:25;;;;;;;2.10;1.10;;;27.80;99.90;;;;;;1832146;76;21133;-78
2022/07/10 06:20:56;;;;;;;3.77;1.30;;;27.90;99.90;;;;;;1912336;74;21713;-78
2022/07/10 06:23:31;;;;;;;3.62;1.52;;;27.90;99.90;;;;;;1923876;72;21103;-79
2022/07/10 06:26:02;;;;;;;3.10;0.90;;;28.00;99.90;;;;;;1907951;75;21226;-79
2022/07/10 06:28:35;;;;;;;2.02;0.80;;;28.10;99.90;;;;;;1947711;73;21196;-79
2022/07/10 06:31:07;;;;;;;2.52;0.78;;;28.20;99.90;;;;;;1947363;73;21155;-79
2022/07/10 06:33:38;;;;;;;2.25;0.60;;;28.20;99.90;;;;;;1947501;73;21081;-78
2022/07/10 06:36:09;;;;;;;2.47;0.55;;;28.30;99.90;;;;;;1948237;72;21117;-78
2022/07/10 06:38:41;;;;;;;1.75;0.60;;;28.30;99.90;;;;;;1947975;73;21691;-78
2022/07/10 06:41:15;;;;;;;1.98;0.60;;;28.30;99.90;;;;;;1948476;73;21042;-78
2022/07/10 06:43:49;;;;;;;3.60;0.90;;;28.20;99.90;;;;;;1945341;73;21128;-78
2022/07/10 06:46:20;;;;;;;4.03;1.40;;;28.20;99.90;;;;;;1947855;73;21260;-78
2022/07/10 06:48:51;;;;;;;2.80;0.60;;;28.20;99.90;;;;;;1948340;73;21125;-79
2022/07/10 06:51:23;;;;;;;2.92;0.78;;;28.20;99.90;;;;;;1951257;72;21228;-79
2022/07/10 06:53:54;;;;;;;1.82;0.88;;;28.20;99.90;;;;;;1943051;72;21124;-78
2022/07/10 06:56:26;;;;;;;3.37;0.88;;;28.20;99.90;;;;;;1947775;73;21179;-78
2022/07/10 06:58:58;;;;;;;2.95;0.78;;;28.30;99.90;;;;;;1948620;72;21811;-78
2022/07/10 07:01:29;;;;;;;1.37;0.72;;;28.30;99.90;;;;;;1948996;73;21121;-78
2022/07/10 07:04:00;;;;;;;2.35;0.80;;;28.30;99.90;;;;;;1949408;73;21133;-77
2022/07/10 07:06:32;;;;;;;2.17;0.98;;;28.30;99.90;;;;;;1948333;73;21164;-78
2022/07/10 07:09:03;;;;;;;2.55;1.40;;;28.40;99.90;;;;;;1948021;73;21485;-78
2022/07/10 07:11:37;;;;;;;5.53;1.12;;;28.40;99.90;;;;;;1948445;73;21206;-77
2022/07/10 07:14:08;;;;;;;2.20;0.55;;;28.50;99.90;;;;;;1948193;73;21171;-79
2022/07/10 07:16:44;;;;;;;4.28;1.25;;;28.50;99.90;;;;;;1948159;73;21114;-78
2022/07/10 07:19:17;;;;;;;1.70;0.50;;;28.50;99.90;;;;;;1947986;73;21641;-77
2022/07/10 07:24:18;;;;;;;2.87;1.67;;;28.50;99.90;;;;;;1932172;74;21125;-78
2022/07/10 07:26:49;;;;;;;1.52;0.90;;;28.40;99.90;;;;;;1973209;72;21082;-78
2022/07/10 07:29:24;;;;;;;5.40;1.07;;;28.40;99.90;;;;;;1967277;72;21535;-78
2022/07/10 07:31:56;;;;;;;1.20;0.60;;;28.40;99.90;;;;;;1985334;72;21589;-78
2022/07/10 07:34:27;;;;;;;2.67;0.72;;;28.50;99.90;;;;;;1966039;72;21063;-79
2022/07/10 07:37:01;;;;;;;3.17;0.80;;;28.50;99.90;;;;;;1969428;71;21212;-79
2022/07/10 07:39:34;;;;;;;1.95;0.70;;;28.60;99.90;;;;;;1977162;71;21594;-78
2022/07/10 07:42:05;;;;;;;2.27;0.85;;;28.60;99.90;;;;;;1976410;71;21135;-78
2022/07/10 07:44:36;;;;;;;3.80;1.07;;;28.50;99.90;;;;;;1981554;71;21091;-78
2022/07/10 07:47:07;;;;;;;2.37;0.40;;;28.50;99.90;;;;;;1980926;71;21153;-78
2022/07/10 07:49:38;;;;;;;3.22;1.87;;;28.40;99.90;;;;;;1970586;72;21074;-79
2022/07/10 07:52:14;;;;;;;2.17;1.02;;;28.40;99.90;;;;;;1971885;71;21169;-78
2022/07/10 07:54:45;;;;;;;1.02;0.50;;;28.40;99.90;;;;;;1983008;71;21550;-79
2022/07/10 07:57:16;;;;;;;2.52;0.57;;;28.40;99.90;;;;;;1974826;71;21138;-77
2022/07/10 07:59:47;;;;;;;4.65;2.37;;;28.40;99.90;;;;;;1975922;71;21111;-78
2022/07/10 08:02:18;;;;;;;6.05;3.12;;;28.30;98.90;;;;;;1973995;71;21142;-79
2022/07/10 08:04:49;;;;;;;3.60;0.70;;;28.30;99.20;;;;;;1882830;74;21270;-78
2022/07/10 08:07:20;;;;;;;2.37;0.80;;;28.30;98.80;;;;;;1901330;74;21739;-79
2022/07/10 08:09:51;;;;;;;2.50;0.75;;;28.30;99.00;;;;;;1977025;71;21137;-79
2022/07/10 08:12:22;;;;;;;4.42;0.93;;;28.20;99.20;;;;;;1972074;71;21194;-79
2022/07/10 08:14:52;;;;;;;2.92;1.05;;;28.20;99.30;;;;;;1972938;71;21087;-78
2022/07/10 08:17:23;;;;;;;4.30;2.45;;;28.20;99.70;;;;;;1976902;71;21133;-78
2022/07/10 08:19:55;;;;;;;1.50;0.70;;;28.10;99.20;;;;;;1975133;71;21109;-76
2022/07/10 08:22:26;;;;;;;3.65;0.90;;;28.10;98.60;;;;;;1963428;72;21111;-76
2022/07/10 08:24:57;;;;;;;2.70;1.70;;;28.10;98.80;;;;;;1969540;72;21438;-77
2022/07/10 08:27:28;;;;;;;5.05;1.85;;;28.10;99.40;;;;;;1960817;71;21223;-78
2022/07/10 08:29:58;;;;;;;1.82;1.00;;;28.10;99.20;;;;;;1971360;71;21176;-78
2022/07/10 08:32:53;;;;;;;2.40;1.00;;;28.10;99.00;;;;;;1963458;72;21174;-78
2022/07/10 08:35:24;;;;;;;2.90;1.40;;;28.10;98.70;;;;;;1967022;72;21536;-78
2022/07/10 08:37:55;;;;;;;4.67;1.62;;;28.10;99.20;;;;;;1965741;72;21131;-75
2022/07/10 08:40:26;;;;;;;3.95;1.30;;;28.00;98.90;;;;;;1897172;74;21200;-76
2022/07/10 08:43:18;;;;;;;2.10;1.20;;;28.00;99.20;;;;;;1896056;75;21102;-79
2022/07/10 08:45:51;;;;;;;2.77;1.60;;;28.10;99.00;;;;;;1934749;74;21208;-79
2022/07/10 08:48:24;;;;;;;2.83;1.10;;;28.10;99.20;;;;;;1935383;73;21274;-78
2022/07/10 08:51:15;;;;;;;1.77;0.75;;;28.20;99.20;;;;;;1950488;72;21213;-78
2022/07/10 08:54:10;;;;;;;3.52;1.57;;;28.30;98.90;;;;;;1960365;72;21043;-79
2022/07/10 08:56:41;;;;;;;3.85;2.27;;;28.40;99.10;;;;;;1964833;72;21098;-79
2022/07/10 08:59:15;;;;;;;2.95;0.98;;;28.50;98.70;;;;;;1959509;71;21091;-79
2022/07/10 09:01:46;;;;;;;2.22;0.80;;;28.60;98.50;;;;;;1966347;71;21201;-79
2022/07/10 09:04:18;;;;;;;1.67;0.70;;;28.60;98.60;;;;;;1967604;71;21106;-78
2022/07/10 09:06:51;;;;;;;2.15;0.70;;;28.60;98.50;;;;;;1965869;73;21166;-78
2022/07/10 09:09:24;;;;;;;1.50;0.70;;;28.60;98.40;;;;;;1977184;71;21117;-79
2022/07/10 09:11:58;;;;;;;1.98;0.70;;;28.60;98.40;;;;;;1999333;71;21093;-79
2022/07/10 09:14:29;;;;;;;1.62;0.53;;;28.50;98.50;;;;;;1968570;72;21546;-80
2022/07/10 09:17:03;;;;;;;3.05;1.85;;;28.50;98.80;;;;;;1965333;73;21063;-78
2022/07/10 09:19:35;;;;;;;6.33;4.20;;;28.50;98.50;;;;;;1961074;72;21529;-79
2022/07/10 09:22:10;;;;;;;5.35;1.40;;;28.40;98.70;;;;;;1962492;72;21248;-78
2022/07/10 09:24:47;;;;;;;4.72;1.67;;;28.40;98.50;;;;;;1957975;72;21248;-79
2022/07/10 09:27:18;;;;;;;4.42;1.95;;;28.40;98.70;;;;;;1961762;72;21237;-79
2022/07/10 09:29:57;;;;;;;4.75;3.67;;;28.40;98.70;;;;;;1969464;72;21155;-79
2022/07/10 09:32:27;;;;;;;3.50;2.35;;;28.30;98.80;;;;;;1970670;72;21028;-79
2022/07/10 09:37:32;;;;;;;3.70;1.20;;;28.30;99.10;;;;;;1895438;75;21745;-79
2022/07/10 09:40:05;;;;;;;3.92;0.80;;;28.30;98.90;;;;;;1925522;74;21148;-80
2022/07/10 09:42:39;;;;;;;4.40;2.45;;;28.20;99.00;;;;;;1948562;73;21626;-78
2022/07/10 09:47:45;;;;;;;4.25;1.90;;;28.10;99.60;;;;;;1985384;72;21487;-78
2022/07/10 09:50:19;;;;;;;4.62;1.80;;;28.10;99.50;;;;;;1984562;72;21076;-79
2022/07/10 09:52:54;;;;;;;2.85;1.45;;;28.10;99.80;;;;;;1964482;72;21311;-79
2022/07/10 09:55:29;;;;;;;3.25;0.90;;;28.10;99.90;;;;;;1969961;71;21562;-78
2022/07/10 09:58:02;;;;;;;3.77;1.30;;;28.00;99.80;;;;;;1962433;72;21765;-78
2022/07/10 10:00:36;;;;;;;1.80;0.98;;;28.00;99.70;;;;;;1930693;72;21237;-78
2022/07/10 10:03:11;;;;;;;3.37;1.00;;;27.90;99.40;;;;;;1982112;72;21570;-77
2022/07/10 10:05:44;;;;;;;3.15;0.70;;;27.90;99.60;;;;;;1979036;72;21111;-78
2022/07/10 10:08:17;;;;;;;3.45;0.90;;;27.80;99.80;;;;;;1950020;72;21151;-78
2022/07/10 10:10:50;;;;;;;1.90;0.70;;;27.80;99.60;;;;;;1952545;72;21548;-79
2022/07/10 10:13:24;;;;;;;3.75;0.90;;;27.70;99.80;;;;;;1951632;72;21124;-80
2022/07/10 10:15:57;;;;;;;2.98;1.20;;;27.70;99.90;;;;;;1952346;72;21543;-77
2022/07/10 10:18:29;;;;;;;6.87;1.00;;;27.70;99.80;;;;;;1953222;72;21111;-79
2022/07/10 10:21:00;;;;;;;2.35;0.90;;;27.70;99.60;;;;;;1963420;72;21146;-77
2022/07/10 10:23:32;;;;;;;4.45;1.32;;;27.60;99.50;;;;;;1962979;72;21123;-78
2022/07/10 10:26:07;;;;;;;3.77;1.10;;;27.60;99.90;;;;;;1988332;71;21173;-78
2022/07/10 10:28:39;;;;;;;2.25;0.80;;;27.60;99.90;;;;;;1996118;72;21269;-78
2022/07/10 10:31:12;;;;;;;3.83;0.98;;;27.60;99.80;;;;;;1997528;72;21099;-78
2022/07/10 10:33:46;;;;;;;2.92;0.90;;;27.60;99.40;;;;;;1998166;72;21147;-80
2022/07/10 10:36:19;;;;;;;1.60;0.98;;;27.60;99.50;;;;;;1998105;72;21179;-79
2022/07/10 10:38:51;;;;;;;1.80;0.90;;;27.60;99.50;;;;;;1989910;72;21768;-79
2022/07/10 10:41:24;;;;;;;3.27;1.15;;;27.60;99.60;;;;;;1993041;72;21067;-78
2022/07/10 10:43:57;;;;;;;4.53;0.90;;;27.60;99.80;;;;;;1956381;73;21566;-80
2022/07/10 10:46:28;;;;;;;1.80;0.72;;;27.50;99.80;;;;;;1953689;73;21697;-78
2022/07/10 10:49:02;;;;;;;2.00;1.10;;;27.60;99.50;;;;;;1956243;73;21602;-78
2022/07/10 10:51:36;;;;;;;2.55;1.20;;;27.50;99.60;;;;;;1961355;72;21539;-78
2022/07/10 10:54:08;;;;;;;1.90;0.90;;;27.50;99.70;;;;;;1994028;72;21520;-79
2022/07/10 10:56:41;;;;;;;2.98;1.30;;;27.50;99.90;;;;;;1981362;72;21129;-79
2022/07/10 10:59:15;;;;;;;1.65;0.88;;;27.50;99.90;;;;;;1974022;72;21511;-79
2022/07/10 11:01:49;;;;;;;2.27;1.00;;;27.50;99.70;;;;;;1961981;72;21185;-79
2022/07/10 11:04:26;;;;;;;3.45;1.00;;;27.40;99.80;;;;;;1986036;72;21569;-79
2022/07/10 11:07:01;;;;;;;3.85;0.90;;;27.40;99.90;;;;;;1992927;72;21611;-79
2022/07/10 11:09:34;;;;;;;5.28;1.17;;;27.40;99.90;;;;;;1931111;73;21884;-79
2022/07/10 11:12:22;;;;;;;3.25;0.80;;;27.40;99.90;;;;;;1894060;75;21571;-79
2022/07/10 11:15:15;;;;;;;3.52;0.85;;;27.40;99.90;;;;;;1926741;73;21627;-78
2022/07/10 11:18:07;;;;;;;2.22;1.00;;;27.40;99.90;;;;;;1894247;74;21197;-79
2022/07/10 11:20:57;;;;;;;2.12;0.80;;;27.30;99.90;;;;;;1977835;72;21134;-79
2022/07/10 11:23:49;;;;;;;3.72;1.00;;;27.30;99.90;;;;;;1958745;71;21256;-78
2022/07/10 11:26:42;;;;;;;5.45;1.10;;;27.30;99.90;;;;;;1965268;72;21131;-80
2022/07/10 11:29:38;;;;;;;1.80;1.00;;;27.30;99.90;;;;;;1882694;74;21175;-79
2022/07/10 11:32:29;;;;;;;3.12;0.93;;;27.30;99.90;;;;;;1969637;72;21075;-78
2022/07/10 11:35:01;;;;;;;2.45;1.00;;;27.30;99.90;;;;;;1962892;72;21126;-78
2022/07/10 11:37:52;;;;;;;2.40;1.02;;;27.30;99.90;;;;;;1973707;72;21068;-78
2022/07/10 11:40:24;;;;;;;2.35;1.00;;;27.40;99.90;;;;;;1970639;72;21151;-79
2022/07/10 11:43:16;;;;;;;2.37;1.22;;;27.40;99.90;;;;;;1958540;72;21123;-79
2022/07/10 11:46:04;;;;;;;5.05;1.20;;;27.40;99.90;;;;;;1955709;72;21209;-79
2022/07/10 11:48:39;;;;;;;3.20;1.25;;;27.40;99.90;;;;;;1946390;72;21575;-79
2022/07/10 11:51:13;;;;;;;3.33;1.00;;;27.40;99.90;;;;;;1946419;73;21112;-78
2022/07/10 11:53:46;;;;;;;3.20;2.00;;;27.50;99.90;;;;;;1945124;72;21206;-78
2022/07/10 11:56:20;;;;;;;4.62;2.15;;;27.40;99.90;;;;;;1976966;72;21532;-79
2022/07/10 11:58:54;;;;;;;2.92;1.70;;;27.50;99.90;;;;;;1989165;71;21688;-78
2022/07/10 12:01:25;;;;;;;3.50;1.60;;;27.40;99.90;;;;;;1982530;72;21135;-79
2022/07/10 12:03:59;;;;;;;4.28;1.50;;;27.40;99.90;;;;;;1988755;72;21184;-79
2022/07/10 12:06:32;;;;;;;4.97;1.80;;;27.40;99.90;;;;;;1965049;72;21141;-79
2022/07/10 12:09:05;;;;;;;4.87;1.37;;;27.40;99.90;;;;;;1953922;73;21476;-79
2022/07/10 12:11:36;;;;;;;7.72;3.75;;;27.40;99.90;;;;;;1963551;72;21235;-79
2022/07/10 12:14:10;;;;;;;18.60;10.23;;;27.40;99.90;;;;;;1990173;72;21112;-79
2022/07/10 12:16:45;;;;;;;24.43;11.25;;;27.40;99.90;;;;;;1964052;72;21246;-79
2022/07/10 12:19:17;;;;;;;26.05;13.62;;;27.40;99.90;;;;;;1946633;74;21554;-79
2022/07/10 12:21:49;;;;;;;33.30;18.30;;;27.40;99.90;;;;;;1960523;72;21155;-80
2022/07/10 12:24:21;;;;;;;18.12;8.78;;;27.40;99.90;;;;;;1987680;72;21441;-78
2022/07/10 12:26:55;;;;;;;11.60;4.30;;;27.40;99.90;;;;;;1963764;72;21228;-78
2022/07/10 12:29:28;;;;;;;8.15;4.15;;;27.40;99.90;;;;;;1945307;72;21427;-79
2022/07/10 12:32:01;;;;;;;10.25;2.52;;;27.40;99.90;;;;;;1971871;72;21783;-78
2022/07/10 12:34:35;;;;;;;7.03;3.30;;;27.40;99.90;;;;;;1985590;72;21652;-78
2022/07/10 12:37:11;;;;;;;10.05;3.75;;;27.40;99.90;;;;;;1937030;73;21531;-80
2022/07/10 12:39:43;;;;;;;6.95;3.55;;;27.40;99.90;;;;;;1923975;74;21099;-80
2022/07/10 12:42:15;;;;;;;6.95;3.35;;;27.40;99.90;;;;;;1920564;74;21177;-79
2022/07/10 12:44:47;;;;;;;6.25;3.62;;;27.40;99.90;;;;;;1923231;74;21159;-78
2022/07/10 12:47:20;;;;;;;7.67;3.62;;;27.40;99.90;;;;;;1946796;73;21079;-78
2022/07/10 12:49:54;;;;;;;4.55;2.62;;;27.40;99.90;;;;;;1927237;74;21107;-79
2022/07/10 12:52:28;;;;;;;8.65;2.87;;;27.40;99.90;;;;;;1888501;76;21765;-79
2022/07/10 12:55:02;;;;;;;6.90;2.60;;;27.40;99.90;;;;;;1887331;74;21532;-78
2022/07/10 12:57:34;;;;;;;5.53;2.58;;;27.40;99.90;;;;;;1887230;75;21237;-79
2022/07/10 13:00:06;;;;;;;7.45;2.20;;;27.30;99.90;;;;;;1930347;74;21215;-79
2022/07/10 13:02:37;;;;;;;3.40;1.92;;;27.40;99.90;;;;;;1899370;74;21138;-79
2022/07/10 13:05:09;;;;;;;4.05;2.17;;;27.40;99.90;;;;;;1896181;75;21585;-78
2022/07/10 13:07:40;;;;;;;5.10;2.45;;;27.40;99.90;;;;;;1891980;74;21240;-78
2022/07/10 13:10:12;;;;;;;5.75;1.90;;;27.40;99.90;;;;;;1887529;74;21365;-78
2022/07/10 13:12:43;;;;;;;3.95;1.98;;;27.40;99.90;;;;;;1936093;73;21112;-78
2022/07/10 13:15:21;;;;;;;6.12;2.30;;;27.40;99.90;;;;;;1952511;73;21127;-78
2022/07/10 13:17:49;;;;;;;8.60;2.35;;;27.40;99.90;;;;;;1922918;72;21289;-78
2022/07/10 13:20:21;;;;;;;6.95;2.33;;;27.30;99.90;;;;;;1937990;72;21115;-78
2022/07/10 13:22:52;;;;;;;9.68;2.22;;;27.30;99.90;;;;;;1952966;73;21155;-79
2022/07/10 13:25:23;;;;;;;7.72;2.20;;;27.30;99.90;;;;;;1944986;73;21575;-80